Airfield :
LOGIN :

Register | Disclaimer

   EN    FR    IT 

 










Legend :    VFR   Marginal VFR   IFR   Intensive IFR   Very Intensive IFR
Visi :
Ceiling :
>= 8 km
>= 3000ft
5 to 8 km
1000 to 3000 ft
1500m to 5 km
500 to 1000 ft
800 to 1500m
200 to 500 ft
< 800m
< 200 ft
Symbols :   Thunderstorms  Fog  Heavy snow  Heavy precipitations  Wind > 20 kt
SIGMETs :     Misc.  Thunderstorms  Icing  Turbulence  Mountain Waves  Volcanic Ashes






- Airport Elevation : 12 ft
- IATA code : BCN


LEBL - Barcelone

CURRENT METAR :
  • 301330Z 19003KT 100V230 9999 FEW025 SCT038 13/07 Q1016 NOSIG

EXPIRED METARs :
  • 301300Z 23002KT 9999 FEW025 SCT046 14/07 Q1016 NOSIG
  • 301230Z 28002KT 9999 FEW032 SCT036 13/06 Q1016 NOSIG
  • 301200Z 31003KT 250V020 9999 FEW032 SCT036 13/06 Q1017 NOSIG
  • 301130Z 32005KT 260V020 9999 FEW033 12/05 Q1017 NOSIG
  • 301100Z 33008KT 300V010 9999 FEW032 11/05 Q1017 NOSIG

TAF TAF LEBL
Valid from the 30 at 12:00 until the 01 at 12:00 UTC


301100Z 3012/0112 32008KT 9999 SCT030 TX16/3012Z TN08/0106Z
BECMG 3012/3014 21005KT
BECMG 3017/3019 VRB03KT
BECMG 3021/3023 33007KT
BECMG 0109/0111 07008KT
PROB30
TEMPO 3021/0103 4000 SHRA FEW020TCU



MET'MAP, your aeronautical weather chart ! - Copyright ORBIFLY December 2007 - Disclaimer

ORBIFLY MET'MAP TEAM :

Programming & Development : Alexandra Zaïnal
Original concept : Baudouin d'Aumeries
Technical & hardware support : Manuel Goepfert
Assistance : Marc-Olivier Méhu




SOURCES & CREDITS :

   NOAA